Archiv-/Tagesdaten

--Timestamp---	Temp	Chill	HIndex	Humid	Dewpt	 Wind 	HiWind	WindDir	Rain 	Barom	Solar	 ET  	 UV 
--------------	----	-----	------	-----	-----	------	------	-------	-----	-----	-----	-----	----
20091128 00:00	4.7	3.2	4.7	86	2.5	6	10	225	0.0	1012.6	0	0.000	0.0
20091128 00:05	4.7	3.2	4.7	85	2.4	6	11	225	0.0	1012.5	0	0.000	0.0
20091128 00:10	4.7	3.3	4.7	85	2.4	6	10	248	0.0	1012.4	0	0.000	0.0
20091128 00:15	4.7	3.3	4.7	84	2.3	6	10	248	0.0	1012.2	0	0.000	0.0
20091128 00:20	4.7	3.2	4.7	84	2.2	6	10	225	0.0	1012.3	0	0.000	0.0
20091128 00:25	4.6	3.1	4.6	84	2.1	6	10	225	0.0	1012.3	0	0.000	0.0
20091128 00:30	4.6	4.6	4.6	85	2.3	5	11	248	0.0	1012.2	0	0.000	0.0
20091128 00:35	4.5	4.5	4.5	84	2.0	5	6	248	0.0	1012.2	0	0.000	0.0
20091128 00:40	4.3	4.3	4.3	85	2.0	3	6	248	0.0	1012.3	0	0.000	0.0
20091128 00:45	4.3	4.3	4.3	85	2.0	3	8	248	0.0	1012.3	0	0.000	0.0
20091128 00:50	4.2	4.2	4.2	85	1.9	3	8	248	0.0	1012.2	0	0.000	0.0
20091128 00:55	4.1	4.1	4.1	86	1.9	3	6	248	0.0	1012.2	0	0.000	0.0
20091128 01:00	4.0	4.0	4.0	85	1.7	2	5	248	0.0	1012.1	0	0.025	0.0
20091128 01:05	3.9	3.9	3.9	86	1.8	2	5	248	0.0	1012.2	0	0.000	0.0
20091128 01:10	3.7	3.7	3.7	86	1.6	3	5	248	0.0	1012.2	0	0.000	0.0
20091128 01:15	3.7	3.7	3.7	86	1.5	5	6	248	0.0	1012.2	0	0.000	0.0
20091128 01:20	3.6	3.6	3.6	86	1.4	3	6	180	0.0	1012.4	0	0.000	0.0
20091128 01:25	3.4	3.4	3.4	87	1.5	5	8	180	0.0	1012.4	0	0.000	0.0
20091128 01:30	3.3	3.3	3.3	87	1.4	3	6	180	0.0	1012.3	0	0.000	0.0
20091128 01:35	3.3	3.3	3.3	88	1.5	3	8	180	0.0	1012.3	0	0.000	0.0
20091128 01:40	3.3	3.3	3.3	88	1.5	3	6	202	0.0	1012.4	0	0.000	0.0
20091128 01:45	3.3	3.3	3.3	88	1.5	3	8	202	0.0	1012.4	0	0.000	0.0
20091128 01:50	3.3	1.7	3.3	88	1.5	6	10	202	0.0	1012.5	0	0.000	0.0
20091128 01:55	3.3	3.3	3.3	88	1.5	5	10	202	0.0	1012.4	0	0.000	0.0
20091128 02:00	3.3	3.3	3.3	88	1.5	3	6	202	0.0	1012.4	0	0.000	0.0
20091128 02:05	3.2	3.2	3.2	88	1.4	5	8	180	0.0	1012.5	0	0.000	0.0
20091128 02:10	3.2	3.2	3.2	88	1.4	5	8	180	0.0	1012.4	0	0.000	0.0
20091128 02:15	3.1	3.1	3.1	88	1.3	5	6	180	0.0	1012.4	0	0.000	0.0
20091128 02:20	2.9	2.9	2.9	88	1.2	5	6	180	0.0	1012.5	0	0.000	0.0
20091128 02:25	2.9	2.9	2.9	88	1.1	3	8	180	0.0	1012.6	0	0.000	0.0
20091128 02:30	2.8	2.8	2.8	89	1.2	5	8	180	0.0	1012.6	0	0.000	0.0
20091128 02:35	2.9	2.9	2.9	89	1.3	5	10	180	0.0	1012.6	0	0.000	0.0
20091128 02:40	2.9	2.9	2.9	89	1.3	5	10	158	0.0	1012.6	0	0.000	0.0
20091128 02:45	3.0	3.0	3.0	89	1.4	3	6	180	0.0	1012.5	0	0.000	0.0
20091128 02:50	2.9	2.9	2.9	89	1.3	3	6	180	0.0	1012.5	0	0.000	0.0
20091128 02:55	2.9	2.9	2.9	89	1.3	3	5	180	0.0	1012.6	0	0.000	0.0
20091128 03:00	2.9	2.9	2.9	89	1.3	3	8	180	0.0	1012.6	0	0.000	0.0
20091128 03:05	2.8	0.6	2.8	89	1.2	8	14	202	0.0	1012.6	0	0.000	0.0
20091128 03:10	2.9	0.7	2.9	89	1.3	8	11	202	0.0	1012.6	0	0.000	0.0
20091128 03:15	2.9	1.2	2.9	89	1.3	6	10	225	0.0	1012.4	0	0.000	0.0
20091128 03:20	3.0	3.0	3.0	89	1.4	5	10	225	0.0	1012.5	0	0.000	0.0
20091128 03:25	3.1	1.4	3.1	89	1.4	6	10	225	0.0	1012.5	0	0.000	0.0
20091128 03:30	3.2	1.5	3.2	89	1.6	6	10	202	0.0	1012.5	0	0.000	0.0
20091128 03:35	3.4	1.7	3.4	88	1.6	6	11	225	0.0	1012.4	0	0.000	0.0
20091128 03:40	3.6	1.9	3.6	88	1.8	6	10	225	0.0	1012.3	0	0.000	0.0
20091128 03:45	3.7	3.7	3.7	88	1.9	5	10	225	0.0	1012.1	0	0.000	0.0
20091128 03:50	3.8	3.8	3.8	88	2.0	5	8	225	0.0	1012.1	0	0.000	0.0
20091128 03:55	3.9	3.9	3.9	87	2.0	5	6	225	0.0	1012.1	0	0.000	0.0
20091128 04:00	4.0	4.0	4.0	87	2.0	5	8	225	0.0	1012.1	0	0.000	0.0
20091128 04:05	4.1	4.1	4.1	86	2.0	3	8	225	0.0	1012.2	0	0.000	0.0
20091128 04:10	4.3	4.3	4.3	86	2.1	5	10	225	0.0	1012.1	0	0.000	0.0
20091128 04:15	4.3	4.3	4.3	86	2.2	3	8	225	0.0	1012.1	0	0.000	0.0
20091128 04:20	4.4	4.4	4.4	85	2.1	5	8	225	0.0	1012.1	0	0.000	0.0
20091128 04:25	4.5	4.5	4.5	85	2.2	5	8	225	0.0	1012.2	0	0.000	0.0
20091128 04:30	4.6	3.1	4.6	84	2.1	6	11	248	0.0	1012.1	0	0.000	0.0
20091128 04:35	4.7	3.2	4.7	84	2.2	6	16	225	0.0	1012.1	0	0.000	0.0
20091128 04:40	4.7	3.3	4.7	84	2.3	6	10	225	0.0	1011.9	0	0.000	0.0
20091128 04:45	4.8	2.9	4.8	83	2.2	8	14	248	0.0	1011.9	0	0.000	0.0
20091128 04:50	4.9	3.5	4.9	83	2.3	6	14	225	0.0	1011.9	0	0.000	0.0
20091128 04:55	4.9	4.9	4.9	83	2.3	5	8	225	0.0	1011.8	0	0.000	0.0
20091128 05:00	4.9	3.5	4.9	83	2.3	6	11	202	0.0	1011.9	0	0.025	0.0
20091128 05:05	4.8	4.8	4.8	83	2.2	3	8	202	0.0	1011.8	0	0.000	0.0
20091128 05:10	4.8	4.8	4.8	83	2.1	3	6	202	0.0	1011.8	0	0.000	0.0
20091128 05:15	4.7	4.7	4.7	84	2.2	5	10	202	0.0	1011.9	0	0.000	0.0
20091128 05:20	4.6	4.6	4.6	84	2.1	5	11	202	0.0	1012.0	0	0.000	0.0
20091128 05:25	4.6	4.6	4.6	84	2.1	3	6	158	0.0	1011.9	0	0.000	0.0
20091128 05:30	4.5	4.5	4.5	85	2.2	5	10	158	0.0	1011.9	0	0.000	0.0
20091128 05:35	4.4	4.4	4.4	85	2.1	3	8	202	0.0	1011.9	0	0.000	0.0
20091128 05:40	4.3	4.3	4.3	85	2.0	3	6	180	0.0	1011.9	0	0.000	0.0
20091128 05:45	4.3	4.3	4.3	86	2.1	5	8	180	0.0	1011.9	0	0.000	0.0
20091128 05:50	4.3	4.3	4.3	86	2.2	5	8	180	0.0	1011.9	0	0.000	0.0
20091128 05:55	4.3	4.3	4.3	85	2.0	5	8	180	0.0	1011.9	0	0.000	0.0
20091128 06:00	4.4	4.4	4.4	85	2.1	5	10	202	0.0	1012.0	0	0.000	0.0
20091128 06:05	4.4	4.4	4.4	85	2.1	3	11	202	0.0	1012.0	0	0.000	0.0
20091128 06:10	4.5	4.5	4.5	85	2.2	5	10	202	0.0	1012.0	0	0.000	0.0
20091128 06:15	4.6	3.1	4.6	84	2.1	6	16	202	0.0	1012.0	0	0.000	0.0
20091128 06:20	4.8	2.9	4.8	83	2.1	8	16	225	0.0	1012.0	0	0.000	0.0
20091128 06:25	5.0	3.1	5.0	82	2.2	8	14	225	0.0	1012.1	0	0.000	0.0
20091128 06:30	5.1	3.3	5.1	81	2.1	8	11	225	0.0	1012.0	0	0.000	0.0
20091128 06:35	5.2	5.2	5.2	81	2.2	5	13	225	0.0	1012.1	0	0.000	0.0
20091128 06:40	5.2	3.8	5.2	81	2.2	6	11	225	0.0	1012.1	0	0.000	0.0
20091128 06:45	5.2	3.3	5.2	81	2.2	8	14	225	0.0	1012.1	0	0.000	0.0
20091128 06:50	5.1	5.1	5.1	81	2.1	5	8	225	0.0	1012.1	0	0.000	0.0
20091128 06:55	5.1	3.7	5.1	81	2.1	6	10	202	0.0	1012.1	0	0.000	0.0
20091128 07:00	5.1	3.7	5.1	81	2.1	6	11	202	0.0	1012.1	0	0.025	0.0
20091128 07:05	5.0	3.6	5.0	81	2.0	6	11	225	0.0	1012.3	0	0.000	0.0
20091128 07:10	5.1	3.2	5.1	80	1.9	8	14	225	0.0	1012.2	0	0.000	0.0
20091128 07:15	5.1	3.7	5.1	79	1.8	6	14	248	0.0	1012.3	0	0.000	0.0
20091128 07:20	5.2	3.9	5.2	79	1.9	6	11	248	0.0	1012.4	0	0.000	0.0
20091128 07:25	5.3	3.5	5.3	78	1.8	8	13	248	0.0	1012.3	0	0.000	0.0
20091128 07:30	5.4	4.0	5.4	78	1.9	6	14	225	0.0	1012.4	0	0.000	0.0
20091128 07:35	5.4	4.0	5.4	78	1.9	6	11	225	0.0	1012.5	0	0.000	0.0
20091128 07:40	5.3	3.9	5.3	78	1.8	6	10	225	0.0	1012.5	0	0.000	0.0
20091128 07:45	5.2	3.8	5.2	79	1.8	6	11	225	0.0	1012.6	0	0.000	0.0
20091128 07:50	5.1	3.2	5.1	79	1.7	8	16	225	0.0	1012.6	3	0.000	0.0
20091128 07:55	5.0	3.6	5.0	79	1.7	6	11	248	0.0	1012.8	5	0.000	0.0
20091128 08:00	5.1	3.7	5.1	78	1.5	6	11	225	0.0	1012.8	7	0.025	0.0
20091128 08:05	5.1	3.2	5.1	78	1.5	8	18	225	0.0	1012.9	9	0.000	0.0
20091128 08:10	5.2	2.9	5.2	77	1.5	10	19	248	0.0	1012.9	11	0.000	0.0
20091128 08:15	5.3	3.1	5.3	77	1.6	10	18	248	0.0	1013.0	13	0.000	0.0
20091128 08:20	5.5	3.0	5.5	76	1.6	11	21	248	0.0	1013.1	15	0.000	0.0
20091128 08:25	5.6	3.1	5.6	76	1.7	11	21	248	0.0	1013.2	17	0.000	0.0
20091128 08:30	5.6	3.9	5.6	76	1.7	8	18	270	0.0	1013.2	18	0.000	0.0
20091128 08:35	5.6	3.9	5.6	76	1.7	8	16	248	0.0	1013.3	19	0.000	0.0
20091128 08:40	5.7	3.9	5.7	76	1.8	8	13	248	0.0	1013.4	22	0.000	0.0
20091128 08:45	5.7	4.4	5.7	77	2.0	6	16	270	0.0	1013.4	38	0.000	0.0
20091128 08:50	5.7	4.0	5.7	77	2.0	8	16	270	0.0	1013.3	29	0.000	0.0
20091128 08:55	5.9	3.8	5.9	76	2.0	10	19	270	0.0	1013.2	25	0.000	0.0
20091128 09:00	6.0	3.9	6.0	76	2.1	10	19	270	0.0	1013.2	25	0.025	0.0
20091128 09:05	6.1	4.0	6.1	76	2.1	10	19	270	0.0	1013.2	26	0.000	0.0
20091128 09:10	6.2	4.1	6.2	76	2.3	10	18	270	0.0	1013.1	27	0.000	0.0
20091128 09:15	6.3	4.0	6.3	75	2.2	11	19	248	0.0	1013.2	28	0.000	0.0
20091128 09:20	6.4	4.4	6.4	75	2.3	10	19	248	0.0	1013.1	28	0.000	0.0
20091128 09:25	6.6	4.0	6.6	75	2.4	13	23	270	0.0	1013.2	28	0.000	0.0
20091128 09:30	6.7	3.7	6.7	74	2.4	16	26	270	0.0	1013.3	28	0.000	0.0
20091128 09:35	6.8	3.5	6.8	73	2.3	19	32	248	0.0	1013.3	28	0.000	0.0
20091128 09:40	7.0	4.1	7.0	72	2.3	16	29	248	0.0	1013.2	30	0.000	0.0
20091128 09:45	7.1	4.2	7.1	72	2.4	16	26	270	0.0	1013.2	30	0.000	0.0
20091128 09:50	7.2	4.5	7.2	72	2.5	14	26	248	0.0	1013.2	30	0.000	0.0
20091128 09:55	7.2	4.8	7.2	73	2.7	13	23	248	0.0	1013.3	32	0.000	0.0
20091128 10:00	7.3	4.6	7.3	72	2.6	14	24	270	0.0	1013.4	32	0.051	0.0
20091128 10:05	7.3	5.0	7.3	72	2.6	13	23	248	0.0	1013.5	33	0.000	0.0
20091128 10:10	7.4	5.1	7.4	72	2.7	13	24	248	0.0	1013.5	33	0.000	0.0
20091128 10:15	7.6	5.2	7.6	71	2.6	13	26	270	0.0	1013.4	33	0.000	0.0
20091128 10:20	7.7	5.1	7.7	70	2.5	14	24	270	0.0	1013.4	34	0.000	0.0
20091128 10:25	7.7	5.7	7.7	69	2.4	11	21	248	0.0	1013.3	36	0.000	0.0
20091128 10:30	7.8	5.6	7.8	70	2.7	13	24	270	0.0	1013.3	36	0.000	0.0
20091128 10:35	7.9	5.9	7.9	69	2.6	11	26	248	0.0	1013.2	37	0.000	0.0
20091128 10:40	7.9	5.5	7.9	68	2.4	14	26	248	0.0	1013.2	36	0.000	0.0
20091128 10:45	8.1	5.6	8.1	68	2.5	14	27	248	0.0	1013.1	36	0.000	0.0
20091128 10:50	8.2	6.0	8.2	68	2.7	13	23	248	0.0	1013.1	57	0.000	0.0
20091128 10:55	8.3	5.9	8.3	66	2.4	14	24	248	0.0	1013.1	292	0.000	0.6
20091128 11:00	8.6	6.4	8.6	66	2.6	13	24	270	0.0	1013.1	295	0.076	0.7
20091128 11:05	8.8	5.8	8.8	62	1.9	21	34	270	0.0	1013.0	300	0.000	0.7
20091128 11:10	8.9	6.5	8.9	63	2.3	16	27	248	0.0	1013.0	304	0.000	0.7
20091128 11:15	9.1	6.5	9.1	63	2.4	18	27	270	0.0	1013.0	308	0.000	0.8
20091128 11:20	9.2	6.6	9.2	62	2.3	18	31	248	0.0	1013.0	310	0.000	0.8
20091128 11:25	9.2	6.3	9.2	60	1.9	21	35	270	0.0	1012.9	315	0.000	0.8
20091128 11:30	9.3	6.5	9.3	60	1.9	19	43	248	0.0	1013.0	322	0.000	0.8
20091128 11:35	9.3	6.5	9.3	60	2.0	21	32	270	0.0	1012.9	328	0.000	0.8
20091128 11:40	9.4	6.9	9.4	60	2.1	18	31	270	0.0	1012.8	333	0.000	0.8
20091128 11:45	9.6	7.1	9.6	59	1.9	18	27	270	0.0	1012.7	323	0.000	0.8
20091128 11:50	9.6	6.6	9.6	58	1.7	23	35	270	0.0	1012.6	294	0.000	0.8
20091128 11:55	9.6	6.9	9.6	59	1.9	19	31	270	0.0	1012.6	280	0.000	0.8
20091128 12:00	9.5	7.2	9.5	60	2.1	16	24	270	0.0	1012.5	207	0.203	0.7
20091128 12:05	9.5	7.6	9.5	60	2.1	13	21	248	0.0	1012.4	226	0.000	0.8
20091128 12:10	9.6	7.7	9.6	60	2.2	13	23	270	0.0	1012.4	247	0.000	0.8
20091128 12:15	9.6	7.7	9.6	59	2.0	13	21	248	0.0	1012.4	275	0.000	0.8
20091128 12:20	9.9	8.6	9.9	60	2.5	10	18	270	0.0	1012.2	361	0.000	0.8
20091128 12:25	10.2	10.2	10.2	58	2.3	11	19	270	0.0	1012.2	332	0.000	0.8
20091128 12:30	10.5	10.5	10.5	58	2.6	6	10	270	0.0	1012.0	320	0.000	0.8
20091128 12:35	10.6	10.6	10.6	57	2.4	10	18	270	0.0	1011.9	321	0.000	0.8
20091128 12:40	10.7	10.7	10.7	57	2.5	8	18	270	0.0	1011.9	308	0.000	0.8
20091128 12:45	10.7	10.7	10.7	55	2.0	13	21	248	0.0	1011.8	303	0.000	0.8
20091128 12:50	10.7	10.7	10.7	55	2.0	14	26	248	0.0	1011.7	291	0.000	0.7
20091128 12:55	10.6	10.6	10.6	55	1.9	14	23	248	0.0	1011.7	303	0.000	0.7
20091128 13:00	10.5	10.5	10.5	55	1.8	14	24	248	0.0	1011.6	238	0.178	0.6
20091128 13:05	10.4	10.4	10.4	55	1.7	11	19	248	0.0	1011.6	208	0.000	0.6
20091128 13:10	10.3	10.3	10.3	55	1.6	10	19	248	0.0	1011.7	160	0.000	0.5
20091128 13:15	10.2	10.2	10.2	57	2.0	11	24	248	0.0	1011.7	144	0.000	0.5
20091128 13:20	10.1	10.1	10.1	57	1.9	10	18	248	0.0	1011.9	145	0.000	0.5
20091128 13:25	10.1	10.1	10.1	57	1.9	6	11	225	0.0	1011.7	162	0.000	0.5
20091128 13:30	10.1	10.1	10.1	59	2.4	8	18	180	0.0	1011.5	191	0.000	0.5
20091128 13:35	10.2	10.2	10.2	60	2.7	8	16	202	0.0	1011.5	194	0.000	0.5
20091128 13:40	10.2	10.2	10.2	60	2.8	6	13	225	0.0	1011.5	212	0.000	0.5
20091128 13:45	10.3	10.3	10.3	59	2.7	8	14	202	0.0	1011.5	273	0.000	0.5
20091128 13:50	10.6	10.6	10.6	58	2.6	6	11	225	0.0	1011.5	250	0.000	0.5
20091128 13:55	10.7	10.7	10.7	58	2.8	10	18	225	0.0	1011.4	230	0.000	0.5
20091128 14:00	10.7	10.7	10.7	57	2.5	10	19	202	0.0	1011.3	214	0.127	0.5
20091128 14:05	10.8	10.8	10.8	57	2.6	8	18	225	0.0	1011.3	225	0.000	0.1
20091128 14:10	10.7	10.7	10.7	57	2.5	6	16	180	0.0	1011.1	173	0.000	0.0
20091128 14:15	10.7	10.7	10.7	57	2.5	6	16	202	0.0	1011.0	108	0.000	0.0
20091128 14:20	10.5	10.5	10.5	58	2.6	8	18	180	0.0	1011.0	88	0.000	0.0
20091128 14:25	10.3	10.3	10.3	59	2.7	8	16	202	0.0	1011.1	90	0.000	0.0
20091128 14:30	10.3	10.3	10.3	60	2.9	6	16	202	0.0	1011.1	102	0.000	0.0
20091128 14:35	10.2	10.2	10.2	60	2.7	8	16	180	0.0	1011.2	92	0.000	0.0
20091128 14:40	10.1	10.1	10.1	60	2.7	8	14	202	0.0	1011.2	98	0.000	0.0
20091128 14:45	10.1	10.1	10.1	61	2.9	8	21	180	0.0	1011.1	100	0.000	0.0
20091128 14:50	10.1	10.1	10.1	61	2.9	8	16	202	0.0	1011.1	71	0.000	0.0
20091128 14:55	10.1	10.1	10.1	60	2.7	6	14	180	0.0	1011.0	51	0.000	0.0
20091128 15:00	10.1	10.1	10.1	58	2.2	10	18	202	0.0	1010.9	42	0.076	0.0
20091128 15:05	10.1	10.1	10.1	59	2.5	8	13	158	0.0	1010.7	37	0.000	0.0
20091128 15:10	10.0	10.0	10.0	60	2.6	8	14	180	0.0	1010.7	33	0.000	0.0
20091128 15:15	9.9	9.3	9.9	62	3.0	6	11	202	0.0	1010.7	30	0.000	0.0
20091128 15:20	9.8	9.2	9.8	62	2.9	6	11	202	0.0	1010.6	26	0.000	0.0
20091128 15:25	9.7	8.6	9.7	62	2.7	8	14	180	0.0	1010.6	25	0.000	0.0
20091128 15:30	9.6	8.5	9.6	63	2.9	8	11	180	0.0	1010.6	25	0.000	0.0
20091128 15:35	9.3	8.6	9.3	63	2.7	6	11	180	0.0	1010.7	25	0.000	0.0
20091128 15:40	9.2	8.5	9.2	64	2.8	6	11	180	0.0	1010.6	24	0.000	0.0
20091128 15:45	9.0	9.0	9.0	65	2.8	5	10	180	0.0	1010.7	22	0.000	0.0
20091128 15:50	8.8	8.8	8.8	66	2.8	5	10	180	0.0	1010.7	20	0.000	0.0
20091128 15:55	8.7	7.8	8.7	67	2.9	6	10	180	0.0	1010.7	18	0.000	0.0
20091128 16:00	8.6	8.6	8.6	68	3.0	5	8	180	0.0	1010.7	16	0.051	0.0
20091128 16:05	8.3	8.3	8.3	68	2.8	3	6	180	0.0	1010.5	13	0.000	0.0
20091128 16:10	8.2	8.2	8.2	69	2.8	5	11	158	0.0	1010.4	11	0.000	0.0
20091128 16:15	8.0	7.1	8.0	69	2.7	6	11	158	0.0	1010.4	8	0.000	0.0
20091128 16:20	7.9	7.9	7.9	69	2.6	5	10	158	0.0	1010.5	4	0.000	0.0
20091128 16:25	7.8	6.8	7.8	69	2.4	6	10	158	0.0	1010.5	0	0.000	0.0
20091128 16:30	7.7	6.7	7.7	69	2.3	6	11	135	0.0	1010.5	0	0.000	0.0
20091128 16:35	7.5	6.5	7.5	69	2.2	6	11	158	0.0	1010.5	0	0.000	0.0
20091128 16:40	7.4	7.4	7.4	70	2.3	5	11	158	0.0	1010.5	0	0.000	0.0
20091128 16:45	7.3	7.3	7.3	70	2.2	3	8	158	0.0	1010.5	0	0.000	0.0
20091128 16:50	7.1	7.1	7.1	71	2.2	3	8	158	0.0	1010.5	0	0.000	0.0
20091128 16:55	6.9	6.9	6.9	71	2.1	3	8	158	0.0	1010.5	0	0.000	0.0
20091128 17:00	6.8	6.8	6.8	72	2.1	5	8	158	0.0	1010.6	0	0.025	0.0
20091128 17:05	6.7	6.7	6.7	72	2.0	5	8	180	0.0	1010.6	0	0.000	0.0
20091128 17:10	6.7	6.7	6.7	72	2.0	5	11	158	0.0	1010.5	0	0.000	0.0
20091128 17:15	6.6	6.6	6.6	73	2.1	3	8	158	0.0	1010.5	0	0.000	0.0
20091128 17:20	6.4	6.4	6.4	73	2.0	3	6	158	0.0	1010.5	0	0.000	0.0
20091128 17:25	6.3	6.3	6.3	74	2.0	5	8	158	0.0	1010.6	0	0.000	0.0
20091128 17:30	6.2	6.2	6.2	75	2.1	5	10	158	0.0	1010.5	0	0.000	0.0
20091128 17:35	6.1	6.1	6.1	76	2.1	5	8	158	0.0	1010.4	0	0.000	0.0
20091128 17:40	6.0	6.0	6.0	77	2.3	3	8	135	0.0	1010.4	0	0.000	0.0
20091128 17:45	5.9	5.9	5.9	77	2.2	3	10	158	0.0	1010.5	0	0.000	0.0
20091128 17:50	5.8	5.8	5.8	78	2.3	5	14	158	0.0	1010.6	0	0.000	0.0
20091128 17:55	5.8	4.6	5.8	78	2.3	6	13	158	0.0	1010.6	0	0.000	0.0
20091128 18:00	5.8	5.8	5.8	78	2.3	5	14	158	0.0	1010.5	0	0.025	0.0
20091128 18:05	5.8	5.8	5.8	78	2.3	5	10	158	0.0	1010.3	0	0.000	0.0
20091128 18:10	5.8	5.8	5.8	78	2.2	5	10	158	0.0	1010.4	0	0.000	0.0
20091128 18:15	5.7	5.7	5.7	78	2.2	5	10	158	0.0	1010.3	0	0.000	0.0
20091128 18:20	5.7	4.4	5.7	78	2.1	6	11	158	0.0	1010.3	0	0.000	0.0
20091128 18:25	5.7	5.7	5.7	78	2.1	5	10	158	0.0	1010.3	0	0.000	0.0
20091128 18:30	5.6	5.6	5.6	78	2.1	5	11	158	0.0	1010.2	0	0.000	0.0
20091128 18:35	5.6	5.6	5.6	78	2.0	5	10	158	0.0	1010.3	0	0.000	0.0
20091128 18:40	5.5	5.5	5.5	78	2.0	5	10	180	0.0	1010.4	0	0.000	0.0
20091128 18:45	5.4	5.4	5.4	78	1.9	3	8	158	0.0	1010.4	0	0.000	0.0
20091128 18:50	5.3	5.3	5.3	78	1.8	3	8	158	0.0	1010.3	0	0.000	0.0
20091128 18:55	5.2	5.2	5.2	79	1.9	5	10	135	0.0	1010.3	0	0.000	0.0
20091128 19:00	5.2	5.2	5.2	79	1.8	5	8	158	0.0	1010.3	0	0.025	0.0
20091128 19:05	5.2	5.2	5.2	79	1.8	3	6	158	0.0	1010.4	0	0.000	0.0
20091128 19:10	5.1	5.1	5.1	79	1.8	2	6	158	0.0	1010.3	0	0.000	0.0
20091128 19:15	5.1	5.1	5.1	79	1.7	3	10	158	0.0	1010.3	0	0.000	0.0
20091128 19:20	5.0	5.0	5.0	79	1.7	3	5	180	0.0	1010.3	0	0.000	0.0
20091128 19:25	4.9	4.9	4.9	80	1.8	5	8	158	0.0	1010.3	0	0.000	0.0
20091128 19:30	4.9	4.9	4.9	80	1.8	5	10	135	0.0	1010.3	0	0.000	0.0
20091128 19:35	5.0	3.6	5.0	79	1.7	6	14	158	0.0	1010.2	0	0.000	0.0
20091128 19:40	5.1	5.1	5.1	79	1.7	5	10	158	0.0	1010.1	0	0.000	0.0
20091128 19:45	5.1	5.1	5.1	79	1.7	5	10	158	0.0	1010.1	0	0.000	0.0
20091128 19:50	5.1	3.2	5.1	79	1.7	8	14	158	0.0	1009.9	0	0.000	0.0
20091128 19:55	5.1	2.8	5.1	79	1.7	10	18	158	0.0	1010.0	0	0.000	0.0
20091128 20:00	5.1	3.3	5.1	78	1.6	8	16	158	0.0	1010.0	0	0.025	0.0
20091128 20:05	5.1	5.1	5.1	78	1.5	5	8	158	0.0	1009.9	0	0.000	0.0
20091128 20:10	5.0	5.0	5.0	79	1.7	5	6	180	0.0	1010.0	0	0.000	0.0
20091128 20:15	4.9	4.9	4.9	79	1.6	5	6	158	0.0	1009.9	0	0.000	0.0
20091128 20:20	4.8	4.8	4.8	79	1.4	3	6	158	0.0	1009.7	0	0.000	0.0
20091128 20:25	4.7	3.3	4.7	79	1.4	6	10	180	0.0	1009.7	0	0.000	0.0
20091128 20:30	4.7	3.2	4.7	80	1.5	6	10	158	0.0	1009.8	0	0.000	0.0
20091128 20:35	4.6	2.7	4.6	80	1.5	8	19	158	0.0	1009.7	0	0.000	0.0
20091128 20:40	4.7	2.4	4.7	80	1.5	10	18	180	0.0	1009.7	0	0.000	0.0
20091128 20:45	4.8	2.1	4.8	79	1.4	11	21	180	0.0	1009.5	0	0.000	0.0
20091128 20:50	4.8	2.2	4.8	79	1.5	11	16	158	0.0	1009.5	0	0.000	0.0
20091128 20:55	4.8	2.6	4.8	79	1.5	10	18	158	0.0	1009.4	0	0.000	0.0
20091128 21:00	4.8	3.3	4.8	79	1.4	6	11	180	0.0	1009.4	0	0.025	0.0
20091128 21:05	4.7	3.3	4.7	79	1.4	6	13	158	0.0	1009.3	0	0.000	0.0
20091128 21:10	4.7	2.7	4.7	79	1.3	8	14	158	0.0	1009.3	0	0.000	0.0
20091128 21:15	4.5	3.0	4.5	80	1.4	6	11	180	0.0	1009.3	0	0.000	0.0
20091128 21:20	4.4	2.1	4.4	80	1.3	10	14	180	0.0	1009.3	0	0.000	0.0
20091128 21:25	4.3	2.4	4.3	80	1.2	8	11	180	0.0	1009.3	0	0.000	0.0
20091128 21:30	4.2	1.8	4.2	81	1.3	10	14	180	0.0	1009.3	0	0.000	0.0
20091128 21:35	4.1	4.1	4.1	81	1.1	5	11	202	0.0	1009.4	0	0.000	0.0
20091128 21:40	3.9	2.3	3.9	81	0.9	6	11	180	0.0	1009.2	0	0.000	0.0
20091128 21:45	3.7	3.7	3.7	82	0.9	3	8	180	0.0	1009.4	0	0.000	0.0
20091128 21:50	3.6	3.6	3.6	82	0.8	2	5	202	0.0	1009.4	0	0.000	0.0
20091128 21:55	3.4	3.4	3.4	82	0.6	0	2	202	0.0	1009.5	0	0.000	0.0
20091128 22:00	3.2	3.2	3.2	82	0.4	0	2	202	0.0	1009.6	0	0.025	0.0
20091128 22:05	3.0	3.0	3.0	83	0.4	0	2	202	0.0	1009.4	0	0.000	0.0
20091128 22:10	2.8	2.8	2.8	84	0.4	0	2	202	0.0	1009.4	0	0.000	0.0
20091128 22:15	2.7	2.7	2.7	84	0.2	0	0	-100000	0.0	1009.3	0	0.000	0.0
20091128 22:20	2.5	2.5	2.5	84	0.1	0	0	-100000	0.0	1009.4	0	0.000	0.0
20091128 22:25	2.3	2.3	2.3	84	-0.1	0	3	202	0.0	1009.5	0	0.000	0.0
20091128 22:30	2.0	2.0	2.0	85	-0.3	2	5	202	0.0	1009.3	0	0.000	0.0
20091128 22:35	1.8	1.8	1.8	86	-0.3	2	5	202	0.0	1009.3	0	0.000	0.0
20091128 22:40	1.8	1.8	1.8	86	-0.3	0	2	202	0.0	1009.4	0	0.000	0.0
20091128 22:45	1.7	1.7	1.7	87	-0.2	2	5	202	0.0	1009.4	0	0.000	0.0
20091128 22:50	1.6	1.6	1.6	87	-0.3	0	2	202	0.0	1009.5	0	0.000	0.0
20091128 22:55	1.5	1.5	1.5	87	-0.4	0	2	202	0.0	1009.6	0	0.000	0.0
20091128 23:00	1.3	1.3	1.3	87	-0.6	3	6	202	0.0	1009.5	0	0.000	0.0
20091128 23:05	1.3	1.3	1.3	87	-0.6	3	8	292	0.0	1009.4	0	0.000	0.0
20091128 23:10	1.2	1.2	1.2	87	-0.7	2	5	292	0.0	1009.5	0	0.000	0.0
20091128 23:15	1.2	1.2	1.2	88	-0.6	3	6	292	0.0	1009.5	0	0.000	0.0
20091128 23:20	1.1	1.1	1.1	88	-0.7	3	5	292	0.0	1009.7	0	0.000	0.0
20091128 23:25	1.2	1.2	1.2	89	-0.4	2	5	292	0.0	1009.8	0	0.000	0.0
20091128 23:30	1.3	1.3	1.3	89	-0.3	3	5	292	0.0	1009.8	0	0.000	0.0
20091128 23:35	1.3	1.3	1.3	89	-0.3	3	6	292	0.0	1009.7	0	0.000	0.0
20091128 23:40	1.3	1.3	1.3	89	-0.3	2	5	292	0.0	1009.6	0	0.000	0.0
20091128 23:45	1.3	1.3	1.3	89	-0.3	2	5	292	0.0	1009.6	0	0.000	0.0
20091128 23:50	1.3	1.3	1.3	89	-0.3	3	6	292	0.0	1009.7	0	0.000	0.0
20091128 23:55	1.3	1.3	1.3	89	-0.3	0	2	270	0.0	1009.7	0	0.000	0.0



Please note the license to use and transfer of this data:
http://creativecommons.org/licenses/by-nc-sa/3.0/deed.en

Bitte beachten sie die Lizenz zur Verwertung und Weitergabe der Daten:
http://creativecommons.org/licenses/by-nc-sa/3.0/deed.de

zurück zur Übersicht der Archivdaten (Monats und Tagesdaten)

Cookies helfen bei der Bereitstellung von Inhalten. Durch die Nutzung dieser Seiten erklärst du dich damit einverstanden, dass Cookies auf deinem Rechner gespeichert werden. Weitere Information